sensor_id;sensor_type;location;lat;lon;timestamp;P1;durP1;ratioP1;P2;durP2;ratioP2
23052;SDS011;11694;-36.632;-64.318;2022-09-09T00:09:53;39.57;;;6.73;;
23052;SDS011;11694;-36.632;-64.318;2022-09-09T00:18:22;41.33;;;5.53;;
23052;SDS011;11694;-36.632;-64.318;2022-09-09T00:20:56;89.93;;;12.43;;
23052;SDS011;11694;-36.632;-64.318;2022-09-09T00:23:38;92.57;;;12.80;;
23052;SDS011;11694;-36.632;-64.318;2022-09-09T00:29:17;39.57;;;8.53;;
23052;SDS011;11694;-36.632;-64.318;2022-09-09T00:31:45;44.83;;;5.97;;
23052;SDS011;11694;-36.632;-64.318;2022-09-09T00:34:20;240.93;;;32.60;;
23052;SDS011;11694;-36.632;-64.318;2022-09-09T00:36:50;142.87;;;18.40;;
23052;SDS011;11694;-36.632;-64.318;2022-09-09T00:39:27;85.57;;;12.97;;
23052;SDS011;11694;-36.632;-64.318;2022-09-09T00:43:01;231.17;;;28.03;;
23052;SDS011;11694;-36.632;-64.318;2022-09-09T00:53:05;254.23;;;36.30;;
23052;SDS011;11694;-36.632;-64.318;2022-09-09T00:58:14;147.30;;;22.33;;
23052;SDS011;11694;-36.632;-64.318;2022-09-09T01:00:46;98.53;;;17.73;;
23052;SDS011;11694;-36.632;-64.318;2022-09-09T01:11:33;72.63;;;12.53;;
23052;SDS011;11694;-36.632;-64.318;2022-09-09T01:17:20;63.00;;;9.50;;
23052;SDS011;11694;-36.632;-64.318;2022-09-09T01:20:06;59.10;;;10.60;;
23052;SDS011;11694;-36.632;-64.318;2022-09-09T01:28:31;51.90;;;7.97;;
23052;SDS011;11694;-36.632;-64.318;2022-09-09T01:31:00;46.27;;;8.23;;
23052;SDS011;11694;-36.632;-64.318;2022-09-09T01:33:32;63.40;;;10.73;;
23052;SDS011;11694;-36.632;-64.318;2022-09-09T01:36:04;48.40;;;8.43;;
23052;SDS011;11694;-36.632;-64.318;2022-09-09T01:38:55;34.07;;;7.17;;
23052;SDS011;11694;-36.632;-64.318;2022-09-09T01:41:23;41.50;;;6.93;;
23052;SDS011;11694;-36.632;-64.318;2022-09-09T01:43:50;35.97;;;6.33;;
23052;SDS011;11694;-36.632;-64.318;2022-09-09T01:46:19;34.00;;;6.33;;
23052;SDS011;11694;-36.632;-64.318;2022-09-09T01:48:49;44.20;;;7.90;;
23052;SDS011;11694;-36.632;-64.318;2022-09-09T01:51:18;71.73;;;11.40;;
23052;SDS011;11694;-36.632;-64.318;2022-09-09T01:53:46;60.87;;;10.27;;
23052;SDS011;11694;-36.632;-64.318;2022-09-09T01:56:29;42.27;;;9.17;;
23052;SDS011;11694;-36.632;-64.318;2022-09-09T01:59:22;32.07;;;6.03;;
23052;SDS011;11694;-36.632;-64.318;2022-09-09T02:08:17;50.77;;;8.13;;
23052;SDS011;11694;-36.632;-64.318;2022-09-09T02:10:24;55.57;;;8.83;;
23052;SDS011;11694;-36.632;-64.318;2022-09-09T02:13:21;46.53;;;9.13;;
23052;SDS011;11694;-36.632;-64.318;2022-09-09T02:18:17;48.60;;;9.10;;
23052;SDS011;11694;-36.632;-64.318;2022-09-09T02:21:00;59.13;;;10.53;;
23052;SDS011;11694;-36.632;-64.318;2022-09-09T02:23:30;67.77;;;11.80;;
23052;SDS011;11694;-36.632;-64.318;2022-09-09T02:26:00;52.33;;;10.87;;
23052;SDS011;11694;-36.632;-64.318;2022-09-09T02:28:30;51.40;;;10.20;;
23052;SDS011;11694;-36.632;-64.318;2022-09-09T02:30:59;54.53;;;10.77;;
23052;SDS011;11694;-36.632;-64.318;2022-09-09T02:33:28;45.57;;;10.17;;
23052;SDS011;11694;-36.632;-64.318;2022-09-09T02:36:01;49.30;;;7.80;;
23052;SDS011;11694;-36.632;-64.318;2022-09-09T02:38:33;47.13;;;9.60;;
23052;SDS011;11694;-36.632;-64.318;2022-09-09T02:41:05;34.80;;;7.30;;
23052;SDS011;11694;-36.632;-64.318;2022-09-09T02:43:33;22.60;;;6.87;;
23052;SDS011;11694;-36.632;-64.318;2022-09-09T02:54:10;20.50;;;6.40;;
23052;SDS011;11694;-36.632;-64.318;2022-09-09T02:56:46;35.57;;;6.30;;
23052;SDS011;11694;-36.632;-64.318;2022-09-09T02:59:21;29.40;;;6.83;;
23052;SDS011;11694;-36.632;-64.318;2022-09-09T03:01:50;17.47;;;4.87;;
23052;SDS011;11694;-36.632;-64.318;2022-09-09T03:04:18;17.13;;;4.73;;
23052;SDS011;11694;-36.632;-64.318;2022-09-09T03:06:46;25.40;;;5.30;;
23052;SDS011;11694;-36.632;-64.318;2022-09-09T03:09:13;26.13;;;5.90;;
23052;SDS011;11694;-36.632;-64.318;2022-09-09T03:11:40;19.10;;;5.27;;
23052;SDS011;11694;-36.632;-64.318;2022-09-09T03:14:07;47.50;;;8.07;;
23052;SDS011;11694;-36.632;-64.318;2022-09-09T03:16:36;60.93;;;9.73;;
23052;SDS011;11694;-36.632;-64.318;2022-09-09T03:19:04;47.83;;;8.80;;
23052;SDS011;11694;-36.632;-64.318;2022-09-09T03:21:32;37.17;;;7.67;;
23052;SDS011;11694;-36.632;-64.318;2022-09-09T03:23:59;26.53;;;6.23;;
23052;SDS011;11694;-36.632;-64.318;2022-09-09T03:26:29;27.60;;;6.43;;
23052;SDS011;11694;-36.632;-64.318;2022-09-09T03:28:58;35.83;;;7.40;;
23052;SDS011;11694;-36.632;-64.318;2022-09-09T03:31:26;28.87;;;6.50;;
23052;SDS011;11694;-36.632;-64.318;2022-09-09T03:33:56;26.97;;;7.13;;
23052;SDS011;11694;-36.632;-64.318;2022-09-09T03:36:24;20.50;;;5.80;;
23052;SDS011;11694;-36.632;-64.318;2022-09-09T03:38:54;26.07;;;5.83;;
23052;SDS011;11694;-36.632;-64.318;2022-09-09T03:41:22;24.37;;;6.80;;
23052;SDS011;11694;-36.632;-64.318;2022-09-09T03:43:50;27.10;;;6.20;;
23052;SDS011;11694;-36.632;-64.318;2022-09-09T03:46:18;27.80;;;6.47;;
23052;SDS011;11694;-36.632;-64.318;2022-09-09T03:48:46;24.70;;;6.17;;
23052;SDS011;11694;-36.632;-64.318;2022-09-09T03:51:13;25.07;;;5.60;;
23052;SDS011;11694;-36.632;-64.318;2022-09-09T03:53:42;19.03;;;5.83;;
23052;SDS011;11694;-36.632;-64.318;2022-09-09T03:56:10;17.90;;;5.50;;
23052;SDS011;11694;-36.632;-64.318;2022-09-09T03:58:37;14.97;;;5.07;;
23052;SDS011;11694;-36.632;-64.318;2022-09-09T04:01:06;20.07;;;5.87;;
23052;SDS011;11694;-36.632;-64.318;2022-09-09T04:03:39;23.43;;;6.43;;
23052;SDS011;11694;-36.632;-64.318;2022-09-09T04:06:07;29.40;;;7.57;;
23052;SDS011;11694;-36.632;-64.318;2022-09-09T04:08:35;24.37;;;10.47;;
23052;SDS011;11694;-36.632;-64.318;2022-09-09T04:11:04;21.10;;;10.13;;
23052;SDS011;11694;-36.632;-64.318;2022-09-09T04:13:33;27.90;;;14.93;;
23052;SDS011;11694;-36.632;-64.318;2022-09-09T04:16:01;31.77;;;16.63;;
23052;SDS011;11694;-36.632;-64.318;2022-09-09T04:18:29;44.57;;;23.83;;
23052;SDS011;11694;-36.632;-64.318;2022-09-09T04:20:56;57.30;;;30.27;;
23052;SDS011;11694;-36.632;-64.318;2022-09-09T04:23:24;55.37;;;26.40;;
23052;SDS011;11694;-36.632;-64.318;2022-09-09T04:25:54;50.23;;;28.53;;
23052;SDS011;11694;-36.632;-64.318;2022-09-09T04:28:23;51.27;;;27.17;;
23052;SDS011;11694;-36.632;-64.318;2022-09-09T04:30:52;40.37;;;21.03;;
23052;SDS011;11694;-36.632;-64.318;2022-09-09T04:33:19;26.63;;;14.87;;
23052;SDS011;11694;-36.632;-64.318;2022-09-09T04:35:48;24.13;;;12.83;;
23052;SDS011;11694;-36.632;-64.318;2022-09-09T04:38:16;23.93;;;10.47;;
23052;SDS011;11694;-36.632;-64.318;2022-09-09T04:40:45;16.70;;;5.40;;
23052;SDS011;11694;-36.632;-64.318;2022-09-09T04:43:13;15.60;;;5.57;;
23052;SDS011;11694;-36.632;-64.318;2022-09-09T04:45:41;14.93;;;5.50;;
23052;SDS011;11694;-36.632;-64.318;2022-09-09T04:48:09;14.67;;;5.23;;
23052;SDS011;11694;-36.632;-64.318;2022-09-09T04:50:36;15.67;;;4.17;;
23052;SDS011;11694;-36.632;-64.318;2022-09-09T04:53:03;14.90;;;4.00;;
23052;SDS011;11694;-36.632;-64.318;2022-09-09T04:55:31;14.03;;;3.93;;
23052;SDS011;11694;-36.632;-64.318;2022-09-09T04:58:04;9.23;;;3.00;;
23052;SDS011;11694;-36.632;-64.318;2022-09-09T05:00:32;9.63;;;3.17;;
23052;SDS011;11694;-36.632;-64.318;2022-09-09T05:03:04;7.67;;;2.80;;
23052;SDS011;11694;-36.632;-64.318;2022-09-09T05:05:37;10.90;;;3.00;;
23052;SDS011;11694;-36.632;-64.318;2022-09-09T05:08:05;10.37;;;4.10;;
23052;SDS011;11694;-36.632;-64.318;2022-09-09T05:10:34;20.80;;;9.30;;
23052;SDS011;11694;-36.632;-64.318;2022-09-09T05:13:04;22.07;;;10.43;;
23052;SDS011;11694;-36.632;-64.318;2022-09-09T05:15:32;27.63;;;14.47;;
23052;SDS011;11694;-36.632;-64.318;2022-09-09T05:17:59;32.87;;;18.20;;
23052;SDS011;11694;-36.632;-64.318;2022-09-09T05:20:28;42.63;;;21.33;;
23052;SDS011;11694;-36.632;-64.318;2022-09-09T05:22:56;41.87;;;21.57;;
23052;SDS011;11694;-36.632;-64.318;2022-09-09T05:25:23;47.67;;;20.33;;
23052;SDS011;11694;-36.632;-64.318;2022-09-09T05:27:53;37.03;;;20.17;;
23052;SDS011;11694;-36.632;-64.318;2022-09-09T05:30:21;42.47;;;17.63;;
23052;SDS011;11694;-36.632;-64.318;2022-09-09T05:32:48;39.57;;;15.20;;
23052;SDS011;11694;-36.632;-64.318;2022-09-09T05:35:20;32.90;;;15.10;;
23052;SDS011;11694;-36.632;-64.318;2022-09-09T05:37:48;32.80;;;13.77;;
23052;SDS011;11694;-36.632;-64.318;2022-09-09T05:40:16;34.47;;;14.77;;
23052;SDS011;11694;-36.632;-64.318;2022-09-09T05:42:43;36.07;;;13.47;;
23052;SDS011;11694;-36.632;-64.318;2022-09-09T05:45:10;30.13;;;14.37;;
23052;SDS011;11694;-36.632;-64.318;2022-09-09T05:47:37;28.43;;;13.13;;
23052;SDS011;11694;-36.632;-64.318;2022-09-09T05:50:04;27.43;;;12.07;;
23052;SDS011;11694;-36.632;-64.318;2022-09-09T05:52:33;34.53;;;14.67;;
23052;SDS011;11694;-36.632;-64.318;2022-09-09T05:55:00;37.40;;;20.20;;
23052;SDS011;11694;-36.632;-64.318;2022-09-09T05:57:29;59.60;;;31.80;;
23052;SDS011;11694;-36.632;-64.318;2022-09-09T05:59:58;44.50;;;24.93;;
23052;SDS011;11694;-36.632;-64.318;2022-09-09T06:02:25;52.20;;;28.70;;
23052;SDS011;11694;-36.632;-64.318;2022-09-09T06:04:55;56.63;;;31.23;;
23052;SDS011;11694;-36.632;-64.318;2022-09-09T06:07:23;54.97;;;34.33;;
23052;SDS011;11694;-36.632;-64.318;2022-09-09T06:09:50;47.53;;;28.40;;
23052;SDS011;11694;-36.632;-64.318;2022-09-09T06:12:18;53.10;;;29.13;;
23052;SDS011;11694;-36.632;-64.318;2022-09-09T06:14:46;49.77;;;29.43;;
23052;SDS011;11694;-36.632;-64.318;2022-09-09T06:17:13;51.87;;;31.37;;
23052;SDS011;11694;-36.632;-64.318;2022-09-09T06:19:40;51.63;;;28.63;;
23052;SDS011;11694;-36.632;-64.318;2022-09-09T06:22:07;39.90;;;20.60;;
23052;SDS011;11694;-36.632;-64.318;2022-09-09T06:24:37;39.00;;;23.00;;
23052;SDS011;11694;-36.632;-64.318;2022-09-09T06:27:04;31.30;;;16.83;;
23052;SDS011;11694;-36.632;-64.318;2022-09-09T06:29:32;32.90;;;15.63;;
23052;SDS011;11694;-36.632;-64.318;2022-09-09T06:32:02;28.63;;;14.67;;
23052;SDS011;11694;-36.632;-64.318;2022-09-09T06:34:37;18.23;;;7.97;;
23052;SDS011;11694;-36.632;-64.318;2022-09-09T06:37:05;18.53;;;9.33;;
23052;SDS011;11694;-36.632;-64.318;2022-09-09T06:39:33;12.83;;;6.73;;
23052;SDS011;11694;-36.632;-64.318;2022-09-09T06:42:01;12.07;;;5.30;;
23052;SDS011;11694;-36.632;-64.318;2022-09-09T06:44:28;15.13;;;5.30;;
23052;SDS011;11694;-36.632;-64.318;2022-09-09T06:46:57;10.30;;;3.90;;
23052;SDS011;11694;-36.632;-64.318;2022-09-09T06:49:24;9.73;;;2.77;;
23052;SDS011;11694;-36.632;-64.318;2022-09-09T06:51:51;12.90;;;3.43;;
23052;SDS011;11694;-36.632;-64.318;2022-09-09T06:54:19;10.53;;;5.23;;
23052;SDS011;11694;-36.632;-64.318;2022-09-09T06:56:47;14.93;;;5.50;;
23052;SDS011;11694;-36.632;-64.318;2022-09-09T06:59:15;11.83;;;4.93;;
23052;SDS011;11694;-36.632;-64.318;2022-09-09T07:01:44;12.17;;;5.13;;
23052;SDS011;11694;-36.632;-64.318;2022-09-09T07:04:12;11.10;;;4.60;;
23052;SDS011;11694;-36.632;-64.318;2022-09-09T07:06:41;11.50;;;4.43;;
23052;SDS011;11694;-36.632;-64.318;2022-09-09T07:09:12;11.93;;;4.63;;
23052;SDS011;11694;-36.632;-64.318;2022-09-09T07:11:48;20.20;;;4.30;;
23052;SDS011;11694;-36.632;-64.318;2022-09-09T07:14:20;14.47;;;6.17;;
23052;SDS011;11694;-36.632;-64.318;2022-09-09T07:16:47;16.33;;;5.07;;
23052;SDS011;11694;-36.632;-64.318;2022-09-09T07:19:14;16.87;;;7.07;;
23052;SDS011;11694;-36.632;-64.318;2022-09-09T07:21:42;12.50;;;7.33;;
23052;SDS011;11694;-36.632;-64.318;2022-09-09T07:24:09;15.03;;;7.23;;
23052;SDS011;11694;-36.632;-64.318;2022-09-09T07:26:37;12.83;;;5.67;;
23052;SDS011;11694;-36.632;-64.318;2022-09-09T07:29:05;12.67;;;5.87;;
23052;SDS011;11694;-36.632;-64.318;2022-09-09T07:31:34;14.03;;;7.40;;
23052;SDS011;11694;-36.632;-64.318;2022-09-09T07:34:03;17.77;;;9.77;;
23052;SDS011;11694;-36.632;-64.318;2022-09-09T07:36:32;21.43;;;9.90;;
23052;SDS011;11694;-36.632;-64.318;2022-09-09T07:39:01;18.60;;;9.33;;
23052;SDS011;11694;-36.632;-64.318;2022-09-09T07:41:51;23.60;;;10.60;;
23052;SDS011;11694;-36.632;-64.318;2022-09-09T07:44:18;20.90;;;9.87;;
23052;SDS011;11694;-36.632;-64.318;2022-09-09T07:46:47;21.70;;;11.00;;
23052;SDS011;11694;-36.632;-64.318;2022-09-09T07:49:14;25.63;;;10.93;;
23052;SDS011;11694;-36.632;-64.318;2022-09-09T07:51:44;25.67;;;12.83;;
23052;SDS011;11694;-36.632;-64.318;2022-09-09T07:54:14;24.63;;;13.40;;
23052;SDS011;11694;-36.632;-64.318;2022-09-09T07:56:45;28.73;;;13.73;;
23052;SDS011;11694;-36.632;-64.318;2022-09-09T07:59:13;28.73;;;15.93;;
23052;SDS011;11694;-36.632;-64.318;2022-09-09T08:01:41;30.40;;;16.77;;
23052;SDS011;11694;-36.632;-64.318;2022-09-09T08:04:14;25.23;;;14.07;;
23052;SDS011;11694;-36.632;-64.318;2022-09-09T08:06:44;26.43;;;13.83;;
23052;SDS011;11694;-36.632;-64.318;2022-09-09T08:09:16;21.13;;;11.40;;
23052;SDS011;11694;-36.632;-64.318;2022-09-09T08:11:43;20.53;;;10.53;;
23052;SDS011;11694;-36.632;-64.318;2022-09-09T08:14:11;20.63;;;11.67;;
23052;SDS011;11694;-36.632;-64.318;2022-09-09T08:16:45;21.87;;;10.30;;
23052;SDS011;11694;-36.632;-64.318;2022-09-09T08:19:13;16.83;;;8.73;;
23052;SDS011;11694;-36.632;-64.318;2022-09-09T08:21:45;14.90;;;7.17;;
23052;SDS011;11694;-36.632;-64.318;2022-09-09T08:24:14;14.57;;;6.77;;
23052;SDS011;11694;-36.632;-64.318;2022-09-09T08:26:43;10.60;;;4.83;;
23052;SDS011;11694;-36.632;-64.318;2022-09-09T08:29:12;8.60;;;3.57;;
23052;SDS011;11694;-36.632;-64.318;2022-09-09T08:31:41;8.53;;;4.03;;
23052;SDS011;11694;-36.632;-64.318;2022-09-09T08:34:20;15.03;;;5.70;;
23052;SDS011;11694;-36.632;-64.318;2022-09-09T08:36:48;12.43;;;6.67;;
23052;SDS011;11694;-36.632;-64.318;2022-09-09T08:39:17;12.57;;;7.07;;
23052;SDS011;11694;-36.632;-64.318;2022-09-09T08:58:16;15.70;;;6.87;;
23052;SDS011;11694;-36.632;-64.318;2022-09-09T09:09:21;14.70;;;5.70;;
23052;SDS011;11694;-36.632;-64.318;2022-09-09T09:12:07;10.43;;;3.53;;
23052;SDS011;11694;-36.632;-64.318;2022-09-09T09:14:44;16.03;;;5.57;;
23052;SDS011;11694;-36.632;-64.318;2022-09-09T09:17:20;13.63;;;7.13;;
23052;SDS011;11694;-36.632;-64.318;2022-09-09T09:19:51;14.73;;;7.07;;
23052;SDS011;11694;-36.632;-64.318;2022-09-09T09:30:52;10.30;;;5.20;;
23052;SDS011;11694;-36.632;-64.318;2022-09-09T09:36:40;8.90;;;3.60;;
23052;SDS011;11694;-36.632;-64.318;2022-09-09T09:39:21;10.10;;;2.63;;
23052;SDS011;11694;-36.632;-64.318;2022-09-09T09:41:53;4.07;;;2.00;;
23052;SDS011;11694;-36.632;-64.318;2022-09-09T09:44:27;9.73;;;2.77;;
23052;SDS011;11694;-36.632;-64.318;2022-09-09T09:47:10;10.73;;;2.93;;
23052;SDS011;11694;-36.632;-64.318;2022-09-09T09:49:39;18.27;;;2.90;;
23052;SDS011;11694;-36.632;-64.318;2022-09-09T09:52:20;14.00;;;3.30;;
23052;SDS011;11694;-36.632;-64.318;2022-09-09T09:54:54;9.17;;;3.10;;
23052;SDS011;11694;-36.632;-64.318;2022-09-09T09:57:28;15.27;;;3.33;;
23052;SDS011;11694;-36.632;-64.318;2022-09-09T10:02:44;16.77;;;4.10;;
23052;SDS011;11694;-36.632;-64.318;2022-09-09T10:05:17;13.60;;;3.47;;
23052;SDS011;11694;-36.632;-64.318;2022-09-09T10:22:32;13.23;;;2.63;;
23052;SDS011;11694;-36.632;-64.318;2022-09-09T10:33:33;18.80;;;3.63;;
23052;SDS011;11694;-36.632;-64.318;2022-09-09T10:36:33;22.07;;;3.60;;
23052;SDS011;11694;-36.632;-64.318;2022-09-09T10:39:14;13.23;;;2.57;;
23052;SDS011;11694;-36.632;-64.318;2022-09-09T10:42:04;18.17;;;2.33;;
23052;SDS011;11694;-36.632;-64.318;2022-09-09T10:47:11;35.17;;;4.43;;
23052;SDS011;11694;-36.632;-64.318;2022-09-09T10:55:28;39.77;;;5.80;;
23052;SDS011;11694;-36.632;-64.318;2022-09-09T10:58:29;44.00;;;5.43;;
23052;SDS011;11694;-36.632;-64.318;2022-09-09T11:01:12;26.93;;;3.57;;
23052;SDS011;11694;-36.632;-64.318;2022-09-09T11:03:44;13.17;;;2.90;;
23052;SDS011;11694;-36.632;-64.318;2022-09-09T11:06:19;21.67;;;3.53;;
23052;SDS011;11694;-36.632;-64.318;2022-09-09T11:08:48;24.80;;;3.90;;
23052;SDS011;11694;-36.632;-64.318;2022-09-09T11:11:22;24.67;;;4.67;;
23052;SDS011;11694;-36.632;-64.318;2022-09-09T11:14:09;22.73;;;4.77;;
23052;SDS011;11694;-36.632;-64.318;2022-09-09T11:17:04;27.53;;;5.83;;
23052;SDS011;11694;-36.632;-64.318;2022-09-09T11:22:07;35.27;;;6.03;;
23052;SDS011;11694;-36.632;-64.318;2022-09-09T11:24:42;23.77;;;3.90;;
23052;SDS011;11694;-36.632;-64.318;2022-09-09T11:27:17;49.53;;;6.57;;
23052;SDS011;11694;-36.632;-64.318;2022-09-09T11:32:49;51.67;;;18.03;;
23052;SDS011;11694;-36.632;-64.318;2022-09-09T11:35:42;43.70;;;18.17;;
23052;SDS011;11694;-36.632;-64.318;2022-09-09T11:38:27;61.17;;;22.97;;
23052;SDS011;11694;-36.632;-64.318;2022-09-09T11:41:02;60.97;;;26.57;;
23052;SDS011;11694;-36.632;-64.318;2022-09-09T11:43:34;59.07;;;25.60;;
23052;SDS011;11694;-36.632;-64.318;2022-09-09T11:46:07;53.67;;;22.60;;
23052;SDS011;11694;-36.632;-64.318;2022-09-09T11:48:39;54.07;;;19.70;;
23052;SDS011;11694;-36.632;-64.318;2022-09-09T11:54:02;52.83;;;15.47;;
23052;SDS011;11694;-36.632;-64.318;2022-09-09T11:56:48;52.93;;;14.33;;
23052;SDS011;11694;-36.632;-64.318;2022-09-09T11:59:29;36.60;;;11.53;;
23052;SDS011;11694;-36.632;-64.318;2022-09-09T12:02:01;33.77;;;9.60;;
23052;SDS011;11694;-36.632;-64.318;2022-09-09T12:04:35;25.57;;;8.23;;
23052;SDS011;11694;-36.632;-64.318;2022-09-09T12:07:23;30.53;;;8.67;;
23052;SDS011;11694;-36.632;-64.318;2022-09-09T12:10:17;21.47;;;4.20;;
23052;SDS011;11694;-36.632;-64.318;2022-09-09T12:12:52;13.23;;;2.67;;
23052;SDS011;11694;-36.632;-64.318;2022-09-09T12:15:21;15.47;;;3.33;;
23052;SDS011;11694;-36.632;-64.318;2022-09-09T12:17:52;15.20;;;2.57;;
23052;SDS011;11694;-36.632;-64.318;2022-09-09T12:23:04;15.03;;;3.43;;
23052;SDS011;11694;-36.632;-64.318;2022-09-09T12:28:22;11.07;;;2.30;;
23052;SDS011;11694;-36.632;-64.318;2022-09-09T12:31:07;24.30;;;2.93;;
23052;SDS011;11694;-36.632;-64.318;2022-09-09T12:33:52;15.13;;;3.23;;
23052;SDS011;11694;-36.632;-64.318;2022-09-09T12:36:23;10.87;;;2.43;;
23052;SDS011;11694;-36.632;-64.318;2022-09-09T12:38:54;12.70;;;2.40;;
23052;SDS011;11694;-36.632;-64.318;2022-09-09T12:44:23;10.43;;;2.20;;
23052;SDS011;11694;-36.632;-64.318;2022-09-09T12:46:53;31.93;;;4.37;;
23052;SDS011;11694;-36.632;-64.318;2022-09-09T12:49:35;11.37;;;2.30;;
23052;SDS011;11694;-36.632;-64.318;2022-09-09T12:52:19;11.87;;;2.17;;
23052;SDS011;11694;-36.632;-64.318;2022-09-09T12:54:59;47.30;;;5.00;;
23052;SDS011;11694;-36.632;-64.318;2022-09-09T12:57:30;8.07;;;2.10;;
23052;SDS011;11694;-36.632;-64.318;2022-09-09T13:00:07;5.97;;;2.00;;
23052;SDS011;11694;-36.632;-64.318;2022-09-09T13:02:51;11.23;;;2.03;;
23052;SDS011;11694;-36.632;-64.318;2022-09-09T13:05:20;15.40;;;2.63;;
23052;SDS011;11694;-36.632;-64.318;2022-09-09T13:08:00;13.00;;;2.33;;
23052;SDS011;11694;-36.632;-64.318;2022-09-09T13:10:29;18.37;;;3.83;;
23052;SDS011;11694;-36.632;-64.318;2022-09-09T13:13:01;13.60;;;3.30;;
23052;SDS011;11694;-36.632;-64.318;2022-09-09T13:15:28;13.23;;;3.20;;
23052;SDS011;11694;-36.632;-64.318;2022-09-09T13:18:00;13.53;;;3.60;;
23052;SDS011;11694;-36.632;-64.318;2022-09-09T13:20:31;13.67;;;2.53;;
23052;SDS011;11694;-36.632;-64.318;2022-09-09T13:22:58;9.47;;;2.70;;
23052;SDS011;11694;-36.632;-64.318;2022-09-09T13:25:26;10.30;;;2.63;;
23052;SDS011;11694;-36.632;-64.318;2022-09-09T13:30:29;12.87;;;2.77;;
23052;SDS011;11694;-36.632;-64.318;2022-09-09T13:35:48;6.03;;;1.33;;
23052;SDS011;11694;-36.632;-64.318;2022-09-09T13:41:21;19.37;;;2.57;;
23052;SDS011;11694;-36.632;-64.318;2022-09-09T13:44:00;5.17;;;1.17;;
23052;SDS011;11694;-36.632;-64.318;2022-09-09T13:46:41;2.87;;;1.10;;
23052;SDS011;11694;-36.632;-64.318;2022-09-09T13:51:43;9.40;;;1.40;;
23052;SDS011;11694;-36.632;-64.318;2022-09-09T13:54:13;6.13;;;1.60;;
23052;SDS011;11694;-36.632;-64.318;2022-09-09T13:56:42;6.80;;;1.30;;
23052;SDS011;11694;-36.632;-64.318;2022-09-09T13:59:11;5.70;;;1.57;;
23052;SDS011;11694;-36.632;-64.318;2022-09-09T14:01:39;6.80;;;1.77;;
23052;SDS011;11694;-36.632;-64.318;2022-09-09T14:04:07;5.93;;;1.03;;
23052;SDS011;11694;-36.632;-64.318;2022-09-09T14:06:36;8.23;;;1.27;;
23052;SDS011;11694;-36.632;-64.318;2022-09-09T14:09:09;4.37;;;1.30;;
23052;SDS011;11694;-36.632;-64.318;2022-09-09T14:11:38;4.17;;;1.20;;
23052;SDS011;11694;-36.632;-64.318;2022-09-09T14:14:05;5.57;;;1.07;;
23052;SDS011;11694;-36.632;-64.318;2022-09-09T14:16:33;4.73;;;1.23;;
23052;SDS011;11694;-36.632;-64.318;2022-09-09T14:19:00;43.13;;;3.57;;
23052;SDS011;11694;-36.632;-64.318;2022-09-09T14:21:28;5.47;;;1.50;;
23052;SDS011;11694;-36.632;-64.318;2022-09-09T14:23:55;5.73;;;1.00;;
23052;SDS011;11694;-36.632;-64.318;2022-09-09T14:26:23;6.73;;;1.10;;
23052;SDS011;11694;-36.632;-64.318;2022-09-09T14:28:53;13.33;;;1.70;;
23052;SDS011;11694;-36.632;-64.318;2022-09-09T14:31:20;5.70;;;1.03;;
23052;SDS011;11694;-36.632;-64.318;2022-09-09T14:33:49;5.47;;;1.30;;
23052;SDS011;11694;-36.632;-64.318;2022-09-09T14:36:17;1.87;;;1.00;;
23052;SDS011;11694;-36.632;-64.318;2022-09-09T14:38:44;10.07;;;1.63;;
23052;SDS011;11694;-36.632;-64.318;2022-09-09T14:41:12;7.90;;;1.30;;
23052;SDS011;11694;-36.632;-64.318;2022-09-09T14:43:45;10.37;;;1.17;;
23052;SDS011;11694;-36.632;-64.318;2022-09-09T14:46:16;13.80;;;2.20;;
23052;SDS011;11694;-36.632;-64.318;2022-09-09T14:48:44;7.93;;;0.90;;
23052;SDS011;11694;-36.632;-64.318;2022-09-09T14:51:24;17.67;;;1.03;;
23052;SDS011;11694;-36.632;-64.318;2022-09-09T14:53:59;6.33;;;1.13;;
23052;SDS011;11694;-36.632;-64.318;2022-09-09T14:56:29;3.47;;;0.83;;
23052;SDS011;11694;-36.632;-64.318;2022-09-09T14:59:02;2.07;;;0.90;;
23052;SDS011;11694;-36.632;-64.318;2022-09-09T15:01:30;94.77;;;7.33;;
23052;SDS011;11694;-36.632;-64.318;2022-09-09T15:04:00;3.20;;;0.70;;
23052;SDS011;11694;-36.632;-64.318;2022-09-09T15:06:31;8.03;;;1.40;;
23052;SDS011;11694;-36.632;-64.318;2022-09-09T15:09:01;2.07;;;0.50;;
23052;SDS011;11694;-36.632;-64.318;2022-09-09T15:11:30;7.87;;;1.20;;
23052;SDS011;11694;-36.632;-64.318;2022-09-09T15:14:03;1.13;;;0.73;;
23052;SDS011;11694;-36.632;-64.318;2022-09-09T15:16:34;4.27;;;1.20;;
23052;SDS011;11694;-36.632;-64.318;2022-09-09T15:19:02;3.30;;;0.90;;
23052;SDS011;11694;-36.632;-64.318;2022-09-09T15:21:32;11.67;;;1.40;;
23052;SDS011;11694;-36.632;-64.318;2022-09-09T15:24:00;13.13;;;1.50;;
23052;SDS011;11694;-36.632;-64.318;2022-09-09T15:26:27;14.13;;;2.63;;
23052;SDS011;11694;-36.632;-64.318;2022-09-09T15:28:55;14.30;;;2.13;;
23052;SDS011;11694;-36.632;-64.318;2022-09-09T15:31:28;3.90;;;1.10;;
23052;SDS011;11694;-36.632;-64.318;2022-09-09T15:33:58;3.07;;;0.90;;
23052;SDS011;11694;-36.632;-64.318;2022-09-09T15:39:01;11.13;;;1.70;;
23052;SDS011;11694;-36.632;-64.318;2022-09-09T15:41:29;11.50;;;1.53;;
23052;SDS011;11694;-36.632;-64.318;2022-09-09T15:44:00;12.57;;;2.20;;
23052;SDS011;11694;-36.632;-64.318;2022-09-09T15:46:31;21.63;;;2.53;;
23052;SDS011;11694;-36.632;-64.318;2022-09-09T15:49:12;13.03;;;1.57;;
23052;SDS011;11694;-36.632;-64.318;2022-09-09T15:51:45;93.07;;;9.40;;
23052;SDS011;11694;-36.632;-64.318;2022-09-09T15:54:17;19.37;;;3.30;;
23052;SDS011;11694;-36.632;-64.318;2022-09-09T15:56:46;22.53;;;2.47;;
23052;SDS011;11694;-36.632;-64.318;2022-09-09T15:59:16;20.20;;;2.73;;
23052;SDS011;11694;-36.632;-64.318;2022-09-09T16:01:43;39.90;;;4.00;;
23052;SDS011;11694;-36.632;-64.318;2022-09-09T16:04:10;19.63;;;2.50;;
23052;SDS011;11694;-36.632;-64.318;2022-09-09T16:06:38;101.33;;;10.80;;
23052;SDS011;11694;-36.632;-64.318;2022-09-09T16:09:06;9.27;;;1.73;;
23052;SDS011;11694;-36.632;-64.318;2022-09-09T16:11:35;3.40;;;0.87;;
23052;SDS011;11694;-36.632;-64.318;2022-09-09T16:14:03;13.90;;;1.80;;
23052;SDS011;11694;-36.632;-64.318;2022-09-09T16:16:31;37.33;;;4.83;;
23052;SDS011;11694;-36.632;-64.318;2022-09-09T16:19:02;16.27;;;1.63;;
23052;SDS011;11694;-36.632;-64.318;2022-09-09T16:21:33;15.07;;;2.33;;
23052;SDS011;11694;-36.632;-64.318;2022-09-09T16:24:03;16.97;;;1.73;;
23052;SDS011;11694;-36.632;-64.318;2022-09-09T16:26:31;9.23;;;1.40;;
23052;SDS011;11694;-36.632;-64.318;2022-09-09T16:29:00;7.80;;;0.70;;
23052;SDS011;11694;-36.632;-64.318;2022-09-09T16:31:28;7.17;;;1.33;;
23052;SDS011;11694;-36.632;-64.318;2022-09-09T16:33:57;7.07;;;1.10;;
23052;SDS011;11694;-36.632;-64.318;2022-09-09T16:36:28;5.50;;;0.63;;
23052;SDS011;11694;-36.632;-64.318;2022-09-09T16:38:57;2.07;;;0.60;;
23052;SDS011;11694;-36.632;-64.318;2022-09-09T16:41:26;11.33;;;1.57;;
23052;SDS011;11694;-36.632;-64.318;2022-09-09T16:43:58;43.87;;;5.77;;
23052;SDS011;11694;-36.632;-64.318;2022-09-09T16:46:28;5.93;;;0.57;;
23052;SDS011;11694;-36.632;-64.318;2022-09-09T16:48:57;4.40;;;0.70;;
23052;SDS011;11694;-36.632;-64.318;2022-09-09T16:51:28;21.43;;;3.23;;
23052;SDS011;11694;-36.632;-64.318;2022-09-09T16:54:01;20.37;;;2.57;;
23052;SDS011;11694;-36.632;-64.318;2022-09-09T16:56:32;9.13;;;1.30;;
23052;SDS011;11694;-36.632;-64.318;2022-09-09T16:59:03;4.60;;;0.80;;
23052;SDS011;11694;-36.632;-64.318;2022-09-09T17:01:34;7.73;;;1.57;;
23052;SDS011;11694;-36.632;-64.318;2022-09-09T17:04:07;21.33;;;2.40;;